createdAt,value
2022-08-07T00:00:26.331Z,97655.25
2022-08-07T00:02:53.977Z,97652.66
2022-08-07T00:05:23.709Z,97667.66
2022-08-07T00:07:59.929Z,97661.09
2022-08-07T00:10:31.005Z,97671.38
2022-08-07T00:13:09.852Z,97662.03
2022-08-07T00:15:51.646Z,97661.81
2022-08-07T00:18:25.317Z,97665.31
2022-08-07T00:20:55.209Z,97670.69
2022-08-07T00:23:24.407Z,97659.53
2022-08-07T00:25:58.861Z,97665.28
2022-08-07T00:28:31.783Z,97662.31
2022-08-07T00:31:16.702Z,97660.53
2022-08-07T00:33:47.724Z,97662.69
2022-08-07T00:36:15.241Z,97655.47
2022-08-07T00:38:44.716Z,97655.72
2022-08-07T00:41:14.754Z,97662.31
2022-08-07T00:44:00.978Z,97656.69
2022-08-07T00:46:33.213Z,97664.69
2022-08-07T00:49:03.132Z,97663.03
2022-08-07T00:51:57.211Z,97661.34
2022-08-07T00:54:19.886Z,97656.31
2022-08-07T00:56:49.581Z,97657.38
2022-08-07T00:59:20.241Z,97662.66
2022-08-07T01:02:02.251Z,97658.81
2022-08-07T01:04:30.218Z,97662.66
2022-08-07T01:06:58.148Z,97662.44
2022-08-07T01:09:51.230Z,97661.56
2022-08-07T01:12:29.720Z,97666.84
2022-08-07T01:15:01.118Z,97657.50
2022-08-07T01:17:30.535Z,97662.78
2022-08-07T01:20:04.906Z,97661.47
2022-08-07T01:22:34.669Z,97668.78
2022-08-07T01:25:05.257Z,97666.72
2022-08-07T01:27:51.660Z,97662.16
2022-08-07T01:30:19.476Z,97663.09
2022-08-07T01:32:47.478Z,97653.63
2022-08-07T01:35:17.299Z,97665.00
2022-08-07T01:37:47.807Z,97663.94
2022-08-07T01:40:21.414Z,97660.09
2022-08-07T01:43:01.338Z,97660.34
2022-08-07T01:45:37.127Z,97661.28
2022-08-07T01:48:18.319Z,97665.38
2022-08-07T01:51:24.444Z,97661.06
2022-08-07T01:54:08.879Z,97662.38
2022-08-07T01:56:55.867Z,97659.63
2022-08-07T01:59:48.341Z,97656.00
2022-08-07T02:02:32.558Z,97660.91
2022-08-07T02:05:06.519Z,97662.84
2022-08-07T02:07:50.036Z,97659.50
2022-08-07T02:10:28.517Z,97666.28
2022-08-07T02:13:00.364Z,97665.94
2022-08-07T02:15:39.390Z,97667.50
2022-08-07T02:18:12.747Z,97667.72
2022-08-07T02:20:42.902Z,97661.63
2022-08-07T02:23:19.992Z,97668.19
2022-08-07T02:26:31.765Z,97662.53
2022-08-07T02:28:44.617Z,97654.03
2022-08-07T02:31:29.087Z,97650.19
2022-08-07T02:34:02.912Z,97655.22
2022-08-07T02:36:41.392Z,97641.22
2022-08-07T02:39:16.187Z,97643.16
2022-08-07T02:41:54.425Z,97646.00
2022-08-07T02:44:27.765Z,97647.28
2022-08-07T02:47:07.393Z,97648.97
2022-08-07T02:49:57.852Z,97655.94
2022-08-07T02:52:35.232Z,97653.06
2022-08-07T02:55:28.314Z,97649.63
2022-08-07T02:58:16.590Z,97654.63
2022-08-07T03:00:52.854Z,97661.00
2022-08-07T03:03:23.399Z,97665.19
2022-08-07T03:05:56.337Z,97658.84
2022-08-07T03:08:26.777Z,97663.91
2022-08-07T03:11:00.341Z,97671.06
2022-08-07T03:13:39.016Z,97661.84
2022-08-07T03:16:23.069Z,97675.75
2022-08-07T03:18:59.488Z,97668.56
2022-08-07T03:21:33.118Z,97662.22
2022-08-07T03:24:21.160Z,97662.44
2022-08-07T03:26:59.014Z,97670.84
2022-08-07T03:29:49.611Z,97677.56
2022-08-07T03:32:34.167Z,97673.72
2022-08-07T03:35:17.512Z,97680.06
2022-08-07T03:37:55.078Z,97679.56
2022-08-07T03:40:31.023Z,97686.16
2022-08-07T03:43:14.359Z,97681.25
2022-08-07T03:45:51.415Z,97686.53
2022-08-07T03:48:25.857Z,97693.13
2022-08-07T03:50:57.791Z,97696.22
2022-08-07T03:54:02.085Z,97680.81
2022-08-07T03:56:33.402Z,97681.75
2022-08-07T03:59:10.075Z,97673.50
2022-08-07T04:01:46.863Z,97680.06
2022-08-07T04:04:17.960Z,97686.31
2022-08-07T04:06:51.002Z,97673.59
2022-08-07T04:09:23.229Z,97673.38
2022-08-07T04:12:21.252Z,97691.31
2022-08-07T04:14:49.122Z,97698.06
2022-08-07T04:17:21.538Z,97705.38
2022-08-07T04:19:56.385Z,97700.81
2022-08-07T04:22:29.234Z,97709.97
2022-08-07T04:25:08.869Z,97706.69
2022-08-07T04:27:44.419Z,97719.78
2022-08-07T04:30:21.660Z,97727.34
2022-08-07T04:33:15.704Z,97726.06
2022-08-07T04:35:50.225Z,97736.13
2022-08-07T04:38:23.001Z,97734.38
2022-08-07T04:40:56.542Z,97734.97
2022-08-07T04:44:11.301Z,97730.75
2022-08-07T04:47:04.918Z,97746.47
2022-08-07T04:50:12.355Z,97761.13
2022-08-07T04:53:00.291Z,97753.31
2022-08-07T04:58:14.033Z,97735.22
2022-08-07T05:00:11.565Z,97737.50
2022-08-07T05:02:30.001Z,97747.97
2022-08-07T05:05:53.314Z,97755.38
2022-08-07T05:08:59.391Z,97750.44
2022-08-07T05:11:58.610Z,97766.41
2022-08-07T05:14:53.262Z,97776.25
2022-08-07T05:17:51.929Z,97769.78
2022-08-07T05:20:10.104Z,97769.41
2022-08-07T05:22:41.785Z,97764.25
2022-08-07T05:25:25.591Z,97760.19
2022-08-07T05:28:02.553Z,97766.66
2022-08-07T05:30:47.086Z,97748.34
2022-08-07T05:33:17.977Z,97759.50
2022-08-07T05:35:51.603Z,97756.75
2022-08-07T05:38:58.347Z,97759.25
2022-08-07T05:41:14.137Z,97767.38
2022-08-07T05:44:07.780Z,97765.84
2022-08-07T05:46:38.942Z,97778.41
2022-08-07T05:49:11.791Z,97775.03
2022-08-07T05:51:46.522Z,97773.44
2022-08-07T05:54:31.260Z,97775.53
2022-08-07T05:57:10.007Z,97773.91
2022-08-07T05:59:57.615Z,97779.50
2022-08-07T06:02:40.514Z,97780.03
2022-08-07T06:05:15.911Z,97773.66
2022-08-07T06:08:29.341Z,97768.66
2022-08-07T06:10:39.469Z,97788.06
2022-08-07T06:13:13.726Z,97778.41
2022-08-07T06:15:46.029Z,97781.50
2022-08-07T06:18:24.979Z,97779.94
2022-08-07T06:22:14.500Z,97782.28
2022-08-07T06:24:37.730Z,97776.41
2022-08-07T06:26:34.128Z,97787.41
2022-08-07T06:29:02.269Z,97783.13
2022-08-07T06:31:46.774Z,97789.28
2022-08-07T06:34:20.740Z,97785.25
2022-08-07T06:36:51.867Z,97786.88
2022-08-07T06:40:17.802Z,97775.81
2022-08-07T06:42:32.842Z,97775.94
2022-08-07T06:45:17.969Z,97771.50
2022-08-07T06:47:58.399Z,97776.31
2022-08-07T06:50:49.067Z,97779.38
2022-08-07T06:54:11.719Z,97782.47
2022-08-07T06:56:17.699Z,97784.19
2022-08-07T07:00:12.467Z,97785.34
2022-08-07T07:01:50.597Z,97790.94
2022-08-07T07:04:32.784Z,97784.03
2022-08-07T07:07:18.899Z,97792.66
2022-08-07T07:09:50.966Z,97788.78
2022-08-07T07:12:36.535Z,97786.59
2022-08-07T07:15:23.516Z,97795.47
2022-08-07T07:18:03.164Z,97790.19
2022-08-07T07:20:42.441Z,97784.34
2022-08-07T07:24:05.930Z,97801.88
2022-08-07T07:26:31.543Z,97803.22
2022-08-07T07:29:38.518Z,97809.59
2022-08-07T07:31:52.570Z,97815.91
2022-08-07T07:34:31.097Z,97816.69
2022-08-07T07:37:14.817Z,97816.56
2022-08-07T07:39:55.760Z,97823.22
2022-08-07T07:42:33.187Z,97817.53
2022-08-07T07:45:06.172Z,97822.56
2022-08-07T07:47:52.129Z,97828.81
2022-08-07T07:50:34.370Z,97825.44
2022-08-07T07:53:20.535Z,97825.91
2022-08-07T07:55:57.897Z,97831.88
2022-08-07T07:58:37.027Z,97828.03
2022-08-07T08:02:03.336Z,97828.44
2022-08-07T08:04:10.666Z,97835.34
2022-08-07T08:06:50.706Z,97830.38
2022-08-07T08:09:22.929Z,97831.25
2022-08-07T08:12:03.082Z,97834.63
2022-08-07T08:14:36.002Z,97838.06
2022-08-07T08:18:36.432Z,97845.03
2022-08-07T08:20:19.365Z,97833.88
2022-08-07T08:23:08.389Z,97838.53
2022-08-07T08:26:04.607Z,97844.09
2022-08-07T08:28:39.165Z,97839.63
2022-08-07T08:31:16.284Z,97852.69
2022-08-07T08:33:55.414Z,97855.69
2022-08-07T08:36:30.405Z,97845.72
2022-08-07T08:39:02.025Z,97851.84
2022-08-07T08:41:58.455Z,97849.16
2022-08-07T08:44:53.162Z,97849.78
2022-08-07T08:47:52.210Z,97843.66
2022-08-07T08:50:28.154Z,97852.59
2022-08-07T08:53:02.794Z,97852.03
2022-08-07T08:56:25.305Z,97852.88
2022-08-07T08:59:13.781Z,97847.28
2022-08-07T09:02:03.544Z,97841.44
2022-08-07T09:05:02.271Z,97850.91
2022-08-07T09:08:03.725Z,97851.72
2022-08-07T09:11:01.134Z,97851.44
2022-08-07T09:13:44.015Z,97848.38
2022-08-07T09:16:30.478Z,97849.22
2022-08-07T09:19:01.061Z,97846.66
2022-08-07T09:22:22.572Z,97843.47
2022-08-07T09:25:11.821Z,97846.34
2022-08-07T09:28:05.405Z,97839.00
2022-08-07T09:30:55.486Z,97832.88
2022-08-07T09:33:57.334Z,97828.47
2022-08-07T09:36:35.665Z,97827.38
2022-08-07T09:39:55.124Z,97826.78
2022-08-07T09:42:50.273Z,97826.47
2022-08-07T09:47:50.259Z,97826.19
2022-08-07T09:48:50.240Z,97820.84
2022-08-07T09:52:15.551Z,97818.81
2022-08-07T09:54:58.012Z,97824.28
2022-08-07T09:58:03.907Z,97823.13
2022-08-07T10:01:08.495Z,97828.16
2022-08-07T10:04:06.452Z,97820.59
2022-08-07T10:06:55.673Z,97821.47
2022-08-07T10:10:01.062Z,97815.53
2022-08-07T10:12:39.660Z,97823.84
2022-08-07T10:16:00.316Z,97807.91
2022-08-07T10:19:01.448Z,97813.47
2022-08-07T10:22:12.261Z,97803.56
2022-08-07T10:24:46.244Z,97808.16
2022-08-07T10:27:17.988Z,97812.19
2022-08-07T10:30:05.034Z,97803.03
2022-08-07T10:33:13.126Z,97807.38
2022-08-07T10:36:36.394Z,97810.03
2022-08-07T10:39:41.661Z,97812.78
2022-08-07T10:42:36.842Z,97801.81
2022-08-07T10:45:57.255Z,97799.38
2022-08-07T10:48:36.389Z,97808.69
2022-08-07T10:51:16.842Z,97803.28
2022-08-07T10:54:23.699Z,97807.28
2022-08-07T10:57:15.485Z,97811.75
2022-08-07T10:59:52.256Z,97802.78
2022-08-07T11:02:34.280Z,97799.84
2022-08-07T11:05:35.774Z,97790.47
2022-08-07T11:08:46.077Z,97791.03
2022-08-07T11:11:35.728Z,97785.56
2022-08-07T11:14:43.988Z,97783.38
2022-08-07T11:17:23.483Z,97783.44
2022-08-07T11:20:49.577Z,97786.84
2022-08-07T11:23:55.746Z,97778.25
2022-08-07T11:26:38.472Z,97769.31
2022-08-07T11:29:43.555Z,97777.13
2022-08-07T11:32:25.368Z,97770.97
2022-08-07T11:34:58.353Z,97772.06
2022-08-07T11:37:57.351Z,97775.72
2022-08-07T11:40:34.088Z,97769.56
2022-08-07T11:43:54.556Z,97769.03
2022-08-07T11:46:22.090Z,97756.78
2022-08-07T11:49:51.104Z,97762.91
2022-08-07T11:52:28.999Z,97757.88
2022-08-07T11:55:01.282Z,97756.50
2022-08-07T11:58:00.112Z,97760.09
2022-08-07T12:00:37.410Z,97759.81
2022-08-07T12:03:45.319Z,97753.97
2022-08-07T12:06:37.512Z,97750.56
2022-08-07T12:09:24.939Z,97736.16
2022-08-07T12:12:12.216Z,97727.25
2022-08-07T12:14:51.416Z,97736.69
2022-08-07T12:17:33.832Z,97735.41
2022-08-07T12:20:09.468Z,97738.31
2022-08-07T12:23:09.192Z,97733.22
2022-08-07T12:26:03.337Z,97738.72
2022-08-07T12:29:04.220Z,97710.19
2022-08-07T12:32:04.109Z,97712.75
2022-08-07T12:34:39.316Z,97714.81
2022-08-07T12:37:16.886Z,97713.50
2022-08-07T12:39:54.153Z,97709.03
2022-08-07T12:42:28.597Z,97705.03
2022-08-07T12:45:14.553Z,97700.78
2022-08-07T12:48:27.571Z,97696.47
2022-08-07T12:51:12.908Z,97694.59
2022-08-07T12:54:37.379Z,97703.88
2022-08-07T12:57:04.548Z,97691.94
2022-08-07T12:59:54.388Z,97692.66
2022-08-07T13:02:34.267Z,97687.34
2022-08-07T13:06:03.763Z,97688.63
2022-08-07T13:08:56.346Z,97678.41
2022-08-07T13:12:02.799Z,97681.28
2022-08-07T13:14:37.562Z,97672.41
2022-08-07T13:17:59.402Z,97664.16
2022-08-07T13:20:51.188Z,97658.81
2022-08-07T13:24:00.767Z,97639.56
2022-08-07T13:26:41.825Z,97648.78
2022-08-07T13:29:34.757Z,97647.00
2022-08-07T13:32:32.352Z,97634.28
2022-08-07T13:35:21.404Z,97627.50
2022-08-07T13:38:26.705Z,97618.28
2022-08-07T13:41:06.338Z,97615.22
2022-08-07T13:43:42.744Z,97608.41
2022-08-07T13:46:24.886Z,97603.63
2022-08-07T13:49:00.354Z,97605.28
2022-08-07T13:52:19.083Z,97592.78
2022-08-07T13:54:28.167Z,97593.97
2022-08-07T13:56:59.856Z,97596.00
2022-08-07T13:59:33.851Z,97589.22
2022-08-07T14:02:10.731Z,97589.34
2022-08-07T14:04:47.473Z,97592.78
2022-08-07T14:07:23.019Z,97592.84
2022-08-07T14:10:17.623Z,97586.72
2022-08-07T14:12:56.101Z,97591.41
2022-08-07T14:15:31.877Z,97586.22
2022-08-07T14:18:24.113Z,97586.97
2022-08-07T14:21:07.874Z,97582.78
2022-08-07T14:24:00.391Z,97582.97
2022-08-07T14:26:51.280Z,97574.81
2022-08-07T14:30:07.112Z,97577.56
2022-08-07T14:32:30.589Z,97568.47
2022-08-07T14:35:03.885Z,97577.59
2022-08-07T14:37:38.858Z,97581.75
2022-08-07T14:40:16.565Z,97578.69
2022-08-07T14:43:58.340Z,97577.34
2022-08-07T14:46:01.994Z,97583.69
2022-08-07T14:48:34.896Z,97579.00
2022-08-07T14:51:16.038Z,97581.88
2022-08-07T14:54:08.799Z,97582.28
2022-08-07T14:56:34.335Z,97564.59
2022-08-07T14:59:13.985Z,97573.75
2022-08-07T15:01:58.184Z,97552.13
2022-08-07T15:04:26.406Z,97562.97
2022-08-07T15:06:57.809Z,97568.09
2022-08-07T15:09:59.119Z,97577.09
2022-08-07T15:12:30.257Z,97579.38
2022-08-07T15:18:14.250Z,97572.72
2022-08-07T15:21:03.750Z,97573.34
2022-08-07T15:27:04.052Z,97583.69
2022-08-07T15:30:09.799Z,97575.63
2022-08-07T15:32:39.754Z,97577.13
2022-08-07T15:35:16.851Z,97581.75
2022-08-07T15:38:17.812Z,97596.31
2022-08-07T15:41:00.105Z,97600.34
2022-08-07T15:43:52.866Z,97601.94
2022-08-07T15:49:17.485Z,97621.69
2022-08-07T15:54:34.125Z,97639.75
2022-08-07T15:57:05.418Z,97639.44
2022-08-07T15:59:40.112Z,97648.94
2022-08-07T16:02:49.441Z,97625.41
2022-08-07T16:05:20.028Z,97631.00
2022-08-07T16:08:31.647Z,97641.00
2022-08-07T16:10:52.338Z,97650.75
2022-08-07T16:13:39.501Z,97650.22
2022-08-07T16:16:47.570Z,97647.63
2022-08-07T16:19:42.860Z,97639.16
2022-08-07T16:22:36.410Z,97627.84
2022-08-07T16:25:07.756Z,97636.75
2022-08-07T16:27:41.699Z,97643.94
2022-08-07T16:30:30.921Z,97644.16
2022-08-07T16:34:03.183Z,97653.25
2022-08-07T16:37:02.136Z,97669.00
2022-08-07T16:40:04.819Z,97666.34
2022-08-07T16:42:33.857Z,97678.84
2022-08-07T16:45:14.182Z,97678.75
2022-08-07T16:48:02.628Z,97673.00
2022-08-07T16:51:20.882Z,97673.97
2022-08-07T16:54:08.994Z,97684.00
2022-08-07T16:56:39.672Z,97665.56
2022-08-07T16:59:21.800Z,97665.09
2022-08-07T17:02:14.111Z,97679.34
2022-08-07T17:06:02.275Z,97679.38
2022-08-07T17:08:00.138Z,97681.91
2022-08-07T17:10:54.837Z,97674.75
2022-08-07T17:14:18.340Z,97689.38
2022-08-07T17:16:55.564Z,97682.16
2022-08-07T17:20:02.735Z,97672.09
2022-08-07T17:22:49.336Z,97684.13
2022-08-07T17:25:47.792Z,97688.31
2022-08-07T17:28:20.172Z,97683.00
2022-08-07T17:30:59.207Z,97693.81
2022-08-07T17:34:32.609Z,97697.41
2022-08-07T17:36:26.021Z,97709.88
2022-08-07T17:39:10.652Z,97706.81
2022-08-07T17:42:03.844Z,97716.81
2022-08-07T17:44:50.065Z,97723.75
2022-08-07T17:47:41.829Z,97739.84
2022-08-07T17:50:55.307Z,97758.69
2022-08-07T17:54:01.334Z,97751.34
2022-08-07T17:56:49.950Z,97757.88
2022-08-07T17:59:36.669Z,97765.63
2022-08-07T18:02:30.288Z,97767.78
2022-08-07T18:05:27.171Z,97774.69
2022-08-07T18:08:24.299Z,97771.00
2022-08-07T18:12:06.182Z,97773.97
2022-08-07T18:13:55.263Z,97779.22
2022-08-07T18:16:58.156Z,97785.28
2022-08-07T18:21:07.461Z,97781.16
2022-08-07T18:22:48.878Z,97794.50
2022-08-07T18:25:40.354Z,97799.44
2022-08-07T18:28:35.681Z,97801.09
2022-08-07T18:31:18.439Z,97817.47
2022-08-07T18:34:35.893Z,97834.13
2022-08-07T18:37:00.582Z,97846.28
2022-08-07T18:40:07.246Z,97847.97
2022-08-07T18:43:09.478Z,97857.13
2022-08-07T18:46:25.049Z,97844.44
2022-08-07T18:50:32.680Z,97848.03
2022-08-07T18:52:37.946Z,97869.19
2022-08-07T18:55:41.782Z,97878.81
2022-08-07T18:58:27.958Z,97876.28
2022-08-07T19:02:18.671Z,97879.91
2022-08-07T19:04:25.069Z,97874.03
2022-08-07T19:07:10.259Z,97880.50
2022-08-07T19:09:59.127Z,97874.66
2022-08-07T19:12:48.818Z,97868.34
2022-08-07T19:16:05.678Z,97871.38
2022-08-07T19:18:35.537Z,97875.91
2022-08-07T19:21:56.123Z,97871.75
2022-08-07T19:24:43.591Z,97862.28
2022-08-07T19:28:58.534Z,97859.50
2022-08-07T19:31:00.841Z,97860.59
2022-08-07T19:33:12.725Z,97846.16
2022-08-07T19:35:44.543Z,97846.66
2022-08-07T19:38:16.683Z,97859.19
2022-08-07T19:40:50.797Z,97870.03
2022-08-07T19:43:48.913Z,97860.59
2022-08-07T19:46:17.927Z,97871.13
2022-08-07T19:48:56.136Z,97876.59
2022-08-07T19:51:52.211Z,97876.59
2022-08-07T19:54:33.412Z,97862.41
2022-08-07T19:58:00.787Z,97869.84
2022-08-07T20:00:02.237Z,97875.34
2022-08-07T20:02:39.231Z,97871.88
2022-08-07T20:05:12.900Z,97867.72
2022-08-07T20:07:47.089Z,97891.06
2022-08-07T20:10:35.583Z,97894.03
2022-08-07T20:13:22.646Z,97888.88
2022-08-07T20:15:57.637Z,97893.47
2022-08-07T20:18:33.585Z,97889.41
2022-08-07T20:21:21.221Z,97908.91
2022-08-07T20:23:58.019Z,97914.41
2022-08-07T20:26:44.927Z,97910.44
2022-08-07T20:29:47.949Z,97910.28
2022-08-07T20:32:11.626Z,97924.69
2022-08-07T20:34:58.622Z,97922.03
2022-08-07T20:37:46.843Z,97918.22
2022-08-07T20:40:32.205Z,97925.09
2022-08-07T20:43:02.634Z,97936.25
2022-08-07T20:46:29.714Z,97941.41
2022-08-07T20:48:29.682Z,97948.13
2022-08-07T20:51:00.847Z,97936.94
2022-08-07T20:54:03.913Z,97928.44
2022-08-07T20:56:30.698Z,97943.69
2022-08-07T20:59:05.410Z,97926.34
2022-08-07T21:01:45.706Z,97920.00
2022-08-07T21:04:28.046Z,97926.72
2022-08-07T21:07:03.894Z,97924.41
2022-08-07T21:09:51.725Z,97936.44
2022-08-07T21:12:26.021Z,97936.00
2022-08-07T21:14:58.763Z,97941.28
2022-08-07T21:18:06.624Z,97938.69
2022-08-07T21:20:29.395Z,97952.47
2022-08-07T21:23:07.664Z,97952.00
2022-08-07T21:25:56.932Z,97956.97
2022-08-07T21:28:51.194Z,97963.09
2022-08-07T21:32:47.504Z,97962.47
2022-08-07T21:34:48.873Z,97960.44
2022-08-07T21:37:58.692Z,97956.44
2022-08-07T21:40:38.211Z,97968.03
2022-08-07T21:43:11.064Z,97969.50
2022-08-07T21:46:24.443Z,97992.88
2022-08-07T21:49:04.760Z,97990.53
2022-08-07T21:52:11.703Z,98000.50
2022-08-07T21:55:00.299Z,97991.16
2022-08-07T21:57:51.790Z,97981.91
2022-08-07T22:00:25.614Z,97987.34
2022-08-07T22:03:30.990Z,97976.53
2022-08-07T22:06:06.278Z,97973.75
2022-08-07T22:08:41.241Z,97974.16
2022-08-07T22:11:21.120Z,97973.53
2022-08-07T22:13:57.379Z,97974.53
2022-08-07T22:16:46.882Z,97981.25
2022-08-07T22:19:23.802Z,97977.28
2022-08-07T22:22:27.538Z,97970.81
2022-08-07T22:25:03.459Z,97977.41
2022-08-07T22:28:30.933Z,97971.84
2022-08-07T22:31:58.907Z,97974.16
2022-08-07T22:34:53.384Z,97968.84
2022-08-07T22:37:27.500Z,97971.84
2022-08-07T22:40:33.684Z,97966.09
2022-08-07T22:43:10.775Z,97972.66
2022-08-07T22:46:41.024Z,97969.91
2022-08-07T22:49:16.191Z,97972.06
2022-08-07T22:51:49.161Z,97960.72
2022-08-07T22:54:19.987Z,97962.41
2022-08-07T22:56:58.008Z,97965.72
2022-08-07T22:59:49.802Z,97968.66
2022-08-07T23:02:37.690Z,97963.16
2022-08-07T23:06:09.905Z,97958.97
2022-08-07T23:08:34.338Z,97947.06
2022-08-07T23:11:16.549Z,97942.28
2022-08-07T23:14:16.830Z,97956.44
2022-08-07T23:17:19.850Z,97965.00
2022-08-07T23:20:40.487Z,97949.63
2022-08-07T23:24:05.261Z,97957.88
2022-08-07T23:26:30.734Z,97949.25
2022-08-07T23:30:36.265Z,97943.88
2022-08-07T23:34:18.929Z,97949.63
2022-08-07T23:35:25.783Z,97952.91
2022-08-07T23:38:36.518Z,97957.41
2022-08-07T23:41:11.469Z,97946.13
2022-08-07T23:44:18.156Z,97946.34
2022-08-07T23:47:07.163Z,97949.38
2022-08-07T23:50:16.436Z,97949.38
2022-08-07T23:53:06.191Z,97953.81
2022-08-07T23:55:55.364Z,97959.56
2022-08-07T23:58:32.541Z,97956.81
